Verdilla, Pennsylvania
Current Conditions -  °F | °C
As of 11:53 AM on Sunday 21 Dec 2014 (Local Time) from KSEG Reporting Station
Overcast Overcast  
Wind Chill: 28°   Ceiling: 2400
Heat Index: 33°   Visibility: 10mi
Dew Point: 22°   Wind: 6mph
Humidity: 64%   Direction: 360°N
Pressure: 30.34"   Gusts: NA
Location:  40.8385°N, 76.8972°W
Report Text: KSEG 211653Z AUTO 36005KT 10SM OVC024 01/M06 A3034 RMK AO2 SLP278 T00061056
Loading
Personal Weather Stations






























Interactive Weather Map New forecast layout! Learn more

10-Day Weather Forecast

Advertisements
Track Severe Weather on mobile